Time;durP1;ratioP1;P1;durP2;ratioP2;P2;SDS_P1;SDS_P2;PMS_P1;PMS_P2;Temp;Humidity;BMP_temperature;BMP_pressure;BME280_temperature;BME280_humidity;BME280_pressure;Samples;Min_cycle;Max_cycle;Signal;HPM_P1;HPM_P2
2023/01/11 00:01:40;;;;;;;33.47;9.20;;;;;;;-143.84;97.85;44222.75;5091999;28;20932;-79
2023/01/11 00:04:07;;;;;;;33.60;10.70;;;;;;;-143.84;97.72;44239.91;5092106;28;20492;-79
2023/01/11 00:06:34;;;;;;;33.50;9.90;;;;;;;-143.84;97.63;44238.00;5092387;28;20432;-80
2023/01/11 00:09:01;;;;;;;25.17;8.90;;;;;;;-143.84;97.58;44234.19;5092407;28;20434;-79
2023/01/11 00:11:28;;;;;;;34.47;11.00;;;;;;;-143.84;97.81;44247.50;5092180;28;20894;-80
2023/01/11 00:13:56;;;;;;;39.53;10.77;;;;;;;-143.84;98.06;44243.69;5092306;28;20493;-79
2023/01/11 00:16:24;;;;;;;24.97;9.30;;;;;;;-143.84;98.05;44239.91;5092254;28;20534;-79
2023/01/11 00:18:51;;;;;;;30.13;10.37;;;;;;;-143.84;98.00;44251.31;5094037;28;20480;-80
2023/01/11 00:21:20;;;;;;;46.47;9.93;;;;;;;-143.84;97.90;44253.22;5095643;28;21162;-80
2023/01/11 00:23:50;;;;;;;20.60;9.30;;;;;;;-143.84;97.97;44251.31;5092783;28;20471;-80
2023/01/11 00:26:17;;;;;;;41.20;10.57;;;;;;;-143.84;97.99;44245.59;5094480;28;20499;-80
2023/01/11 00:28:44;;;;;;;27.80;9.80;;;;;;;-143.84;98.13;44249.41;5096113;28;20427;-80
2023/01/11 00:31:11;;;;;;;30.10;10.03;;;;;;;-143.84;98.01;44253.22;5096463;28;20931;-80
2023/01/11 00:33:40;;;;;;;35.23;11.03;;;;;;;-143.84;97.95;44253.22;5096214;28;20989;-80
2023/01/11 00:36:08;;;;;;;34.67;10.17;;;;;;;-143.84;98.21;44255.13;5095927;28;20442;-80
2023/01/11 00:38:45;;;;;;;23.33;10.00;;;;;;;-143.84;98.28;44266.53;5096555;28;20470;-80
2023/01/11 00:49:28;;;;;;;26.63;9.50;;;;;;;-143.84;98.34;44277.97;5095861;28;20412;-80
2023/01/11 00:51:56;;;;;;;24.20;9.30;;;;;;;-143.84;98.49;44289.41;5095689;28;20486;-80
2023/01/11 00:54:23;;;;;;;26.73;9.07;;;;;;;-143.84;98.55;44289.41;5096328;28;20509;-80
2023/01/11 00:56:50;;;;;;;32.40;9.73;;;;;;;-143.84;98.45;44291.28;5096074;28;20613;-80
2023/01/11 00:59:18;;;;;;;36.37;9.20;;;;;;;-143.84;98.46;44285.59;5095463;28;20474;-80
2023/01/11 01:01:45;;;;;;;22.10;8.67;;;;;;;-143.84;98.66;44302.72;5096027;28;21064;-79
2023/01/11 01:04:12;;;;;;;31.93;9.10;;;;;;;-143.84;98.61;44298.91;5095400;28;20496;-80
2023/01/11 01:06:41;;;;;;;26.60;8.77;;;;;;;-143.84;99.14;44312.25;5095717;28;20437;-79
2023/01/11 01:09:08;;;;;;;47.83;10.70;;;;;;;-143.84;98.97;44323.66;5095971;28;20471;-79
2023/01/11 01:11:35;;;;;;;22.53;9.43;;;;;;;-143.84;98.98;44317.94;5094770;28;20531;-79
2023/01/11 01:16:48;;;;;;;31.23;8.50;;;;;;;-143.84;99.12;44317.94;5094001;28;20405;-79
2023/01/11 01:19:15;;;;;;;24.13;9.77;;;;;;;-143.84;99.03;44329.38;5093917;28;20561;-79
2023/01/11 01:21:44;;;;;;;23.60;9.40;;;;;;;-143.84;99.29;44340.78;5094090;28;20910;-79
2023/01/11 01:24:11;;;;;;;37.03;10.77;;;;;;;-143.84;99.17;44340.78;5094185;28;20496;-79
2023/01/11 01:26:38;;;;;;;40.50;10.90;;;;;;;-143.84;99.40;44357.94;5094323;28;20430;-80
2023/01/11 01:29:06;;;;;;;38.03;9.83;;;;;;;-143.84;99.35;44369.34;5093836;28;20506;-80
2023/01/11 01:31:33;;;;;;;27.37;11.00;;;;;;;-143.84;99.48;44371.25;5093739;28;20953;-79
2023/01/11 01:34:00;;;;;;;29.00;10.30;;;;;;;-143.84;99.49;44369.34;5094092;28;20446;-79
2023/01/11 01:36:27;;;;;;;33.00;10.93;;;;;;;-143.84;99.50;44380.78;5094271;28;20430;-79
2023/01/11 01:38:56;;;;;;;31.80;10.57;;;;;;;-143.84;99.50;44386.47;5093868;28;20481;-79
2023/01/11 01:41:23;;;;;;;37.47;11.90;;;;;;;-143.84;99.68;44394.09;5093770;28;20452;-79
2023/01/11 01:43:53;;;;;;;33.30;10.87;;;;;;;-143.84;99.94;44413.13;5093756;28;20425;-79
2023/01/11 01:46:21;;;;;;;39.63;12.60;;;;;;;-143.84;99.87;44415.03;5093441;28;20451;-79
2023/01/11 01:48:56;;;;;;;30.00;10.47;;;;;;;-143.84;99.97;44418.84;5093850;28;20439;-79
2023/01/11 01:51:28;;;;;;;39.53;10.93;;;;;;;-143.84;100.00;44416.94;5093650;28;20459;-79
2023/01/11 01:54:01;;;;;;;31.67;12.20;;;;;;;-143.84;100.00;44416.94;5093874;28;20812;-79
2023/01/11 01:56:33;;;;;;;43.87;12.37;;;;;;;-143.84;99.78;44420.75;5093432;28;20466;-79
2023/01/11 01:59:06;;;;;;;40.37;11.70;;;;;;;-143.84;99.97;44420.75;5093730;28;20871;-79
2023/01/11 02:01:49;;;;;;;46.00;12.43;;;;;;;-143.84;99.94;44432.19;5093709;28;20437;-79
2023/01/11 02:04:22;;;;;;;45.40;12.23;;;;;;;-143.84;100.00;44447.41;5093942;28;20828;-79
2023/01/11 02:06:50;;;;;;;35.50;11.50;;;;;;;-143.84;100.00;44447.41;5093534;28;20446;-79
2023/01/11 02:09:26;;;;;;;54.17;11.93;;;;;;;-143.84;100.00;44449.31;5093525;28;20518;-80
2023/01/11 02:11:56;;;;;;;48.70;13.00;;;;;;;-143.84;100.00;44451.22;5045949;28;1355297;-80
2023/01/11 02:14:25;;;;;;;48.63;12.03;;;;;;;-143.84;100.00;44453.13;5094533;28;20535;-79
2023/01/11 02:16:52;;;;;;;34.60;12.20;;;;;;;-143.84;100.00;44462.63;5094433;28;20900;-79
2023/01/11 02:19:32;;;;;;;32.97;13.37;;;;;;;-143.84;100.00;44464.53;5094419;28;20465;-80
2023/01/11 02:22:35;;;;;;;39.43;12.97;;;;;;;-143.84;100.00;44474.06;5094223;28;20434;-80
2023/01/11 02:25:18;;;;;;;28.97;10.57;;;;;;;-143.84;100.00;44470.25;5094435;28;20918;-80
2023/01/11 02:28:03;;;;;;;38.77;13.50;;;;;;;-143.84;100.00;44475.97;5093300;28;20468;-80
2023/01/11 02:30:38;;;;;;;52.37;12.30;;;;;;;-143.84;100.00;44474.06;5094501;28;20438;-79
2023/01/11 02:33:14;;;;;;;34.53;12.10;;;;;;;-143.84;100.00;44481.69;5093996;28;20559;-79
2023/01/11 02:36:05;;;;;;;42.73;12.20;;;;;;;-143.84;100.00;44479.78;5093796;28;20443;-80
2023/01/11 02:38:38;;;;;;;45.27;13.13;;;;;;;-143.84;100.00;44483.56;5093913;28;20438;-79
2023/01/11 02:41:14;;;;;;;35.43;13.43;;;;;;;-143.84;100.00;44481.69;5092576;28;20469;-79
2023/01/11 02:46:44;;;;;;;41.43;13.60;;;;;;;-143.84;100.00;44477.88;5093723;28;20769;-79
2023/01/11 02:49:16;;;;;;;51.97;13.70;;;;;;;-143.84;100.00;44481.69;5093098;28;20468;-79
2023/01/11 02:51:50;;;;;;;37.03;13.37;;;;;;;-143.84;100.00;44477.88;5093802;28;20434;-79
2023/01/11 02:54:21;;;;;;;40.80;14.00;;;;;;;-143.84;100.00;44479.78;5093523;28;20429;-79
2023/01/11 02:56:51;;;;;;;37.87;12.43;;;;;;;-143.84;100.00;44464.53;5093407;28;20432;-79
2023/01/11 02:59:22;;;;;;;40.17;13.53;;;;;;;-143.84;100.00;44462.63;5093406;28;20499;-79
2023/01/11 03:01:51;;;;;;;31.33;12.27;;;;;;;-143.84;100.00;44458.81;5093617;28;20453;-79
2023/01/11 03:04:27;;;;;;;31.97;13.37;;;;;;;-143.84;100.00;44447.41;5093324;28;20513;-79
2023/01/11 03:07:09;;;;;;;39.53;15.17;;;;;;;-143.84;100.00;44445.50;5092954;28;20438;-79
2023/01/11 03:09:48;;;;;;;36.53;12.73;;;;;;;-143.84;99.86;44437.88;5093063;28;20435;-79
2023/01/11 03:15:34;;;;;;;34.77;11.70;;;;;;;-143.84;99.94;44443.59;5092962;28;20401;-80
2023/01/11 03:18:11;;;;;;;34.13;13.43;;;;;;;-143.84;100.00;44445.50;5093370;28;20462;-80
2023/01/11 03:20:41;;;;;;;35.17;12.50;;;;;;;-143.84;99.97;44449.31;5092823;28;20539;-79
2023/01/11 03:23:17;;;;;;;35.00;12.57;;;;;;;-143.84;99.84;44439.78;5092945;28;20440;-80
2023/01/11 03:25:56;;;;;;;38.77;13.40;;;;;;;-143.84;99.77;44434.09;5092271;28;20444;-80
2023/01/11 03:28:36;;;;;;;22.80;11.50;;;;;;;-143.84;99.74;44432.19;5092336;28;20546;-79
2023/01/11 03:31:11;;;;;;;31.47;12.20;;;;;;;-143.84;99.74;44426.47;5090328;28;20455;-80
2023/01/11 03:33:46;;;;;;;36.03;13.10;;;;;;;-143.84;99.72;44435.97;5091818;28;20436;-80
2023/01/11 03:36:20;;;;;;;42.93;14.57;;;;;;;-143.84;99.97;44445.50;5092647;28;20493;-80
2023/01/11 03:38:51;;;;;;;36.90;13.30;;;;;;;-143.84;100.00;44439.78;5092832;28;20488;-80
2023/01/11 03:41:24;;;;;;;47.13;13.50;;;;;;;-143.84;100.00;44447.41;5092483;28;20988;-80
2023/01/11 03:43:54;;;;;;;27.17;12.80;;;;;;;-143.84;100.00;44449.31;5092703;28;20906;-80
2023/01/11 03:46:27;;;;;;;39.60;12.57;;;;;;;-143.84;100.00;44451.22;5092370;28;20994;-80
2023/01/11 03:48:59;;;;;;;46.30;13.93;;;;;;;-143.84;100.00;44449.31;5092647;28;20443;-80
2023/01/11 03:51:30;;;;;;;33.93;12.97;;;;;;;-143.84;100.00;44447.41;5092637;28;20434;-81
2023/01/11 03:54:00;;;;;;;34.27;13.10;;;;;;;-143.84;100.00;44451.22;5092490;28;20491;-80
2023/01/11 03:56:35;;;;;;;36.10;14.83;;;;;;;-143.84;99.99;44441.69;5090973;28;20484;-81
2023/01/11 03:59:03;;;;;;;35.17;11.40;;;;;;;-143.84;99.83;44441.69;5072194;28;20925;-79
2023/01/11 04:01:32;;;;;;;38.73;12.20;;;;;;;-143.84;99.83;44443.59;5087861;28;20501;-81
2023/01/11 04:03:59;;;;;;;35.30;12.67;;;;;;;-143.84;100.00;44441.69;5092688;28;20999;-80
2023/01/11 04:06:26;;;;;;;38.80;12.10;;;;;;;-143.84;99.93;44432.19;5092703;28;20422;-80
2023/01/11 04:08:53;;;;;;;47.47;12.87;;;;;;;-143.84;99.72;44430.28;5092334;28;20431;-85
2023/01/11 04:11:21;;;;;;;37.97;13.30;;;;;;;-143.84;99.46;44418.84;5091933;28;21004;-79
2023/01/11 04:13:48;;;;;;;39.13;13.80;;;;;;;-143.84;99.67;44420.75;5092901;28;20427;-79
2023/01/11 04:16:15;;;;;;;40.63;12.83;;;;;;;-143.84;99.35;44416.94;5091685;28;20437;-82
2023/01/11 04:18:44;;;;;;;52.13;10.83;;;;;;;-143.84;99.06;44401.72;5092410;28;20504;-81
2023/01/11 04:21:11;;;;;;;46.23;11.77;;;;;;;-143.84;99.15;44373.16;5091604;28;20474;-80
2023/01/11 04:23:38;;;;;;;36.97;12.30;;;;;;;-143.84;98.91;44371.25;5092191;28;20821;-77
2023/01/11 04:26:05;;;;;;;38.87;13.00;;;;;;;-143.84;98.90;44380.78;5092038;28;20932;-80
2023/01/11 04:28:33;;;;;;;37.87;14.03;;;;;;;-143.84;99.17;44382.69;5091921;28;20434;-80
2023/01/11 04:31:00;;;;;;;36.17;12.77;;;;;;;-143.84;99.12;44378.88;5091133;28;20436;-80
2023/01/11 04:33:27;;;;;;;42.00;12.73;;;;;;;-143.84;99.11;44394.09;5091811;28;20514;-80
2023/01/11 04:35:56;;;;;;;33.60;13.00;;;;;;;-143.84;99.15;44397.91;5092095;28;20438;-78
2023/01/11 04:38:25;;;;;;;37.27;12.70;;;;;;;-143.84;99.17;44403.63;5091534;28;20436;-80
2023/01/11 04:42:17;;;;;;;35.23;12.37;;;;;;;-143.84;99.45;44409.34;5091319;28;20468;-78
2023/01/11 04:43:38;;;;;;;42.30;13.67;;;;;;;-143.84;99.55;44409.34;5091547;28;20793;-79
2023/01/11 04:46:06;;;;;;;49.20;14.17;;;;;;;-143.84;99.26;44420.75;5090299;28;20521;-79
2023/01/11 04:48:33;;;;;;;40.93;13.93;;;;;;;-143.84;99.26;44415.03;5091054;28;20513;-78
2023/01/11 04:51:02;;;;;;;36.83;12.70;;;;;;;-143.84;99.34;44399.81;5090965;28;20963;-79
2023/01/11 04:53:29;;;;;;;40.83;11.70;;;;;;;-143.84;99.12;44380.78;5091005;28;20515;-78
2023/01/11 04:56:00;;;;;;;37.53;13.23;;;;;;;-143.84;98.79;44375.06;5090582;28;20439;-79
2023/01/11 04:58:28;;;;;;;50.53;12.83;;;;;;;-143.84;98.85;44375.06;5091066;28;20433;-78
2023/01/11 05:00:56;;;;;;;41.43;12.23;;;;;;;-143.84;99.38;44384.59;5090238;28;20525;-78
2023/01/11 05:03:23;;;;;;;48.20;14.20;;;;;;;-143.84;99.42;44399.81;5090750;28;20439;-78
2023/01/11 05:05:56;;;;;;;27.63;11.47;;;;;;;-143.84;99.48;44405.53;5094296;28;20439;-78
2023/01/11 05:08:25;;;;;;;59.53;15.73;;;;;;;-143.84;99.37;44405.53;5094200;28;20516;-78
2023/01/11 05:10:53;;;;;;;44.30;13.57;;;;;;;-143.84;99.34;44407.44;5094614;28;20547;-81
2023/01/11 05:13:21;;;;;;;36.70;12.93;;;;;;;-143.84;99.12;44401.72;5094849;28;20445;-79
2023/01/11 05:15:48;;;;;;;31.97;13.97;;;;;;;-143.84;99.49;44399.81;5094509;28;20499;-80
2023/01/11 05:18:15;;;;;;;38.53;14.70;;;;;;;-143.84;99.12;44392.19;5095048;28;20436;-78
2023/01/11 05:20:43;;;;;;;46.97;13.70;;;;;;;-143.84;99.48;44403.63;5094838;28;20477;-76
2023/01/11 05:23:10;;;;;;;37.87;14.20;;;;;;;-143.84;99.27;44409.34;5094229;28;20986;-78
2023/01/11 05:25:38;;;;;;;36.70;13.33;;;;;;;-143.84;99.17;44407.44;5094619;28;20487;-79
2023/01/11 05:28:05;;;;;;;35.63;12.07;;;;;;;-143.84;99.46;44405.53;5094972;28;20466;-79
2023/01/11 05:30:32;;;;;;;35.63;13.30;;;;;;;-143.84;99.39;44396.00;5094513;28;21006;-79
2023/01/11 05:33:01;;;;;;;43.70;14.53;;;;;;;-143.84;99.34;44399.81;5094633;28;20443;-80
2023/01/11 05:35:28;;;;;;;49.27;12.80;;;;;;;-143.84;99.31;44411.22;5095114;28;20537;-80
2023/01/11 05:37:55;;;;;;;39.97;14.00;;;;;;;-143.84;99.55;44415.03;5094287;28;20489;-80
2023/01/11 05:40:22;;;;;;;30.63;12.73;;;;;;;-143.84;99.53;44407.44;5094617;28;20479;-80
2023/01/11 05:42:50;;;;;;;38.67;13.03;;;;;;;-143.84;99.18;44401.72;5094595;28;20957;-80
2023/01/11 05:45:28;;;;;;;33.77;13.27;;;;;;;-143.84;99.10;44386.47;5094332;28;20937;-80
2023/01/11 05:47:55;;;;;;;37.30;13.00;;;;;;;-143.84;99.14;44378.88;5094121;28;20863;-80
2023/01/11 05:50:22;;;;;;;41.17;13.90;;;;;;;-143.84;99.13;44373.16;5094233;28;20450;-80
2023/01/11 05:52:50;;;;;;;36.60;13.00;;;;;;;-143.84;98.89;44371.25;5094471;28;20428;-80
2023/01/11 05:55:17;;;;;;;37.30;14.43;;;;;;;-143.84;98.83;44369.34;5094271;28;20443;-80
2023/01/11 05:57:45;;;;;;;31.73;14.67;;;;;;;-143.84;98.88;44369.34;5093877;28;20491;-81
2023/01/11 06:00:15;;;;;;;29.83;13.50;;;;;;;-143.84;98.80;44365.53;5093558;28;20478;-80
2023/01/11 06:02:42;;;;;;;40.70;13.20;;;;;;;-143.84;98.80;44363.63;5094306;28;20489;-80
2023/01/11 06:05:09;;;;;;;35.13;12.73;;;;;;;-143.84;98.70;44352.22;5094244;28;20431;-80
2023/01/11 06:07:37;;;;;;;31.80;12.57;;;;;;;-143.84;98.55;44344.59;5093990;28;20539;-80
2023/01/11 06:10:04;;;;;;;32.77;14.20;;;;;;;-143.84;98.26;44323.66;5094172;28;20443;-80
2023/01/11 06:12:32;;;;;;;32.00;13.47;;;;;;;-143.84;98.20;44323.66;5093420;28;20494;-80
2023/01/11 06:14:59;;;;;;;27.60;13.27;;;;;;;-143.84;98.15;44312.25;5093270;28;20489;-79
2023/01/11 06:17:28;;;;;;;34.13;12.90;;;;;;;-143.84;98.25;44314.13;5092995;28;20488;-79
2023/01/11 06:19:55;;;;;;;30.67;13.90;;;;;;;-143.84;98.23;44317.94;5093328;28;20503;-79
2023/01/11 06:22:22;;;;;;;46.63;14.70;;;;;;;-143.84;98.43;44310.34;5093601;28;20435;-80
2023/01/11 06:24:49;;;;;;;41.13;14.23;;;;;;;-143.84;98.26;44300.81;5093766;28;20835;-80
2023/01/11 06:27:17;;;;;;;36.63;12.03;;;;;;;-143.84;98.38;44317.94;5093353;28;20435;-80
2023/01/11 06:29:44;;;;;;;33.83;13.70;;;;;;;-143.84;98.39;44304.63;5092916;28;21004;-80
2023/01/11 06:32:11;;;;;;;31.47;12.57;;;;;;;-143.84;98.09;44302.72;5093002;28;20436;-80
2023/01/11 06:34:40;;;;;;;29.03;13.27;;;;;;;-143.84;97.87;44302.72;5092445;28;20435;-80
2023/01/11 06:37:08;;;;;;;42.60;14.70;;;;;;;-143.84;97.96;44281.78;5092260;28;20437;-80
2023/01/11 06:39:35;;;;;;;41.33;12.90;;;;;;;-143.84;98.12;44293.19;5091268;28;20434;-80
2023/01/11 06:42:02;;;;;;;42.60;14.17;;;;;;;-143.84;97.96;44298.91;5092785;28;20480;-80
2023/01/11 06:44:30;;;;;;;37.90;14.33;;;;;;;-143.84;98.17;44304.63;5092621;28;20433;-79
2023/01/11 06:46:58;;;;;;;30.37;13.60;;;;;;;-143.84;97.89;44297.00;5093353;28;20439;-80
2023/01/11 06:49:25;;;;;;;36.40;13.43;;;;;;;-143.84;98.02;44279.88;5093210;28;20442;-80
2023/01/11 06:51:53;;;;;;;37.53;14.07;;;;;;;-143.84;97.83;44279.88;5092982;28;20841;-80
2023/01/11 06:58:22;;;;;;;39.23;14.73;;;;;;;-143.84;98.05;44285.59;5091843;28;20485;-80
2023/01/11 07:00:50;;;;;;;43.63;14.77;;;;;;;-143.84;97.93;44279.88;5092824;28;20509;-81
2023/01/11 07:03:17;;;;;;;34.50;14.77;;;;;;;-143.84;98.06;44272.25;5092841;28;20435;-80
2023/01/11 07:05:45;;;;;;;38.57;14.60;;;;;;;-143.84;98.30;44293.19;5092792;28;20444;-80
2023/01/11 07:08:13;;;;;;;36.10;13.70;;;;;;;-143.84;98.15;44304.63;5092989;28;20475;-80
2023/01/11 07:10:41;;;;;;;35.20;13.80;;;;;;;-143.84;98.09;44302.72;5092429;28;20537;-80
2023/01/11 07:13:08;;;;;;;39.27;13.97;;;;;;;-143.84;98.18;44300.81;5092494;28;20471;-80
2023/01/11 07:15:35;;;;;;;30.40;14.60;;;;;;;-143.84;98.46;44310.34;5092801;28;20964;-80
2023/01/11 07:18:02;;;;;;;27.03;15.07;;;;;;;-143.84;98.37;44302.72;5092636;28;20431;-80
2023/01/11 07:20:30;;;;;;;30.60;16.90;;;;;;;-143.84;98.40;44298.91;5092707;28;20536;-80
2023/01/11 07:22:58;;;;;;;30.20;13.50;;;;;;;-143.84;98.16;44287.50;5092563;28;20439;-79
2023/01/11 07:25:27;;;;;;;31.80;14.53;;;;;;;-143.84;97.92;44287.50;5092556;28;20442;-79
2023/01/11 07:27:59;;;;;;;26.10;12.83;;;;;;;-143.84;98.27;44285.59;5091557;28;20443;-79
2023/01/11 07:30:27;;;;;;;31.87;14.37;;;;;;;-143.84;97.62;44272.25;5092088;28;20436;-79
2023/01/11 07:32:55;;;;;;;36.93;16.23;;;;;;;-143.84;97.98;44270.34;5091880;28;20435;-79
2023/01/11 07:35:22;;;;;;;25.90;13.60;;;;;;;-143.84;97.79;44268.44;5091993;28;20885;-78
2023/01/11 07:37:49;;;;;;;35.70;15.87;;;;;;;-143.84;97.76;44264.66;5091700;28;20444;-78
2023/01/11 07:40:17;;;;;;;28.87;13.70;;;;;;;-143.84;97.29;44251.31;5091425;28;20457;-78
2023/01/11 07:45:36;;;;;;;29.97;16.00;;;;;;;-143.84;97.06;44238.00;5091302;28;20423;-78
2023/01/11 07:48:04;;;;;;;33.30;15.53;;;;;;;-143.84;96.98;44230.38;5091114;28;20496;-78
2023/01/11 07:50:31;;;;;;;36.33;17.20;;;;;;;-143.84;96.86;44228.47;5091183;28;20443;-78
2023/01/11 07:52:59;;;;;;;39.37;16.03;;;;;;;-143.84;96.79;44234.19;5091272;28;20440;-78
2023/01/11 07:55:26;;;;;;;34.37;18.87;;;;;;;-143.84;96.95;44224.66;5090903;28;20921;-78
2023/01/11 07:57:56;;;;;;;37.97;17.17;;;;;;;-143.84;96.53;44222.75;5090625;28;20991;-78
2023/01/11 08:00:24;;;;;;;43.33;17.10;;;;;;;-143.84;96.74;44220.84;5091266;28;20509;-78
2023/01/11 08:02:51;;;;;;;41.77;17.90;;;;;;;-143.84;96.50;44228.47;5091097;28;20439;-78
2023/01/11 08:05:20;;;;;;;33.67;17.10;;;;;;;-143.84;96.73;44220.84;5091230;28;20527;-78
2023/01/11 08:07:47;;;;;;;29.00;16.17;;;;;;;-143.84;96.68;44217.06;5091179;28;20492;-78
2023/01/11 08:10:15;;;;;;;25.23;14.03;;;;;;;-143.84;96.57;44211.34;5090997;28;20876;-78
2023/01/11 08:15:30;;;;;;;34.37;15.37;;;;;;;-143.84;96.36;44203.72;5091178;28;20643;-78
2023/01/11 08:17:57;;;;;;;39.43;14.90;;;;;;;-143.84;96.17;44199.91;5090930;28;20424;-78
2023/01/11 08:20:25;;;;;;;33.87;15.00;;;;;;;-143.84;96.02;44194.22;5090848;28;20489;-78
2023/01/11 08:22:53;;;;;;;41.50;17.20;;;;;;;-143.84;96.19;44199.91;5090489;28;20439;-78
2023/01/11 08:25:21;;;;;;;28.30;15.23;;;;;;;-143.84;96.23;44196.13;5089282;28;20452;-78
2023/01/11 08:27:48;;;;;;;43.43;16.00;;;;;;;-143.84;95.47;44180.88;5089647;28;20440;-78
2023/01/11 08:30:15;;;;;;;31.77;16.40;;;;;;;-143.84;95.67;44171.38;5090008;28;20448;-78
2023/01/11 08:32:44;;;;;;;36.47;16.97;;;;;;;-143.84;95.55;44180.88;5090079;28;20451;-78
2023/01/11 08:35:13;;;;;;;34.83;16.67;;;;;;;-143.84;95.12;44165.66;5089918;28;20455;-78
2023/01/11 08:37:40;;;;;;;30.27;15.37;;;;;;;-143.84;95.22;44158.03;5090242;28;20452;-79
2023/01/11 08:40:08;;;;;;;44.23;19.50;;;;;;;-143.84;94.81;44159.94;5091158;28;20444;-79
2023/01/11 08:42:35;;;;;;;32.03;18.13;;;;;;;-143.84;94.62;44154.22;5093716;28;20490;-79
2023/01/11 08:45:03;;;;;;;42.23;17.93;;;;;;;-143.84;94.39;44137.09;5094404;28;20447;-79
2023/01/11 08:47:30;;;;;;;49.10;22.63;;;;;;;-143.84;94.20;44135.19;5094263;28;20443;-79
2023/01/11 08:49:58;;;;;;;55.53;19.00;;;;;;;-143.84;94.54;44139.00;5094729;28;20492;-78
2023/01/11 08:52:25;;;;;;;44.73;17.73;;;;;;;-143.84;94.28;44150.41;5092782;28;20453;-78
2023/01/11 08:54:52;;;;;;;33.40;17.00;;;;;;;-143.84;94.38;44142.81;5093626;28;20479;-79
2023/01/11 08:57:19;;;;;;;34.20;19.07;;;;;;;-143.84;94.56;44146.63;5093859;28;20447;-79
2023/01/11 08:59:47;;;;;;;37.23;19.67;;;;;;;-143.84;94.56;44140.91;5094406;28;20455;-79
2023/01/11 09:02:14;;;;;;;38.13;17.10;;;;;;;-143.84;94.85;44150.41;5093888;28;20471;-79
2023/01/11 09:04:42;;;;;;;39.17;17.40;;;;;;;-143.84;94.79;44152.31;5091967;28;20451;-79
2023/01/11 09:07:10;;;;;;;35.03;16.17;;;;;;;-143.84;95.05;44150.41;5093668;28;20447;-79
2023/01/11 09:09:37;;;;;;;38.70;16.83;;;;;;;-143.84;95.39;44158.03;5093639;28;20459;-78
2023/01/11 09:12:05;;;;;;;47.83;18.97;;;;;;;-143.84;95.23;44158.03;5093016;28;20483;-78
2023/01/11 09:14:33;;;;;;;48.17;20.03;;;;;;;-143.84;95.35;44171.38;5093173;28;20977;-79
2023/01/11 09:17:00;;;;;;;54.83;19.13;;;;;;;-143.84;95.82;44177.06;5093568;28;20467;-79
2023/01/11 09:19:27;;;;;;;34.60;16.13;;;;;;;-143.84;95.79;44188.50;5093886;28;20496;-78
2023/01/11 09:21:58;;;;;;;29.23;13.50;;;;;;;-143.84;96.24;44180.88;5093196;28;20804;-79
2023/01/11 09:24:26;;;;;;;45.67;12.80;;;;;;;-143.84;96.01;44186.59;5093506;28;20459;-78
2023/01/11 09:26:54;;;;;;;44.80;16.27;;;;;;;-143.84;96.47;44184.69;5093603;28;20505;-78
2023/01/11 09:29:21;;;;;;;42.10;14.63;;;;;;;-143.84;96.47;44199.91;5093021;28;20448;-78
2023/01/11 09:31:48;;;;;;;45.70;13.07;;;;;;;-143.84;97.01;44205.63;5093365;28;20505;-78
2023/01/11 09:34:15;;;;;;;28.47;13.97;;;;;;;-143.84;96.92;44211.34;5093521;28;20444;-79
2023/01/11 09:36:44;;;;;;;36.73;13.30;;;;;;;-143.84;96.83;44207.53;5093471;28;20460;-80
2023/01/11 09:39:14;;;;;;;40.57;13.50;;;;;;;-143.84;96.81;44213.25;5094258;28;20447;-79
2023/01/11 09:42:07;;;;;;;40.37;11.63;;;;;;;-143.84;97.17;44218.94;5092335;28;20480;-79
2023/01/11 09:44:37;;;;;;;40.23;11.80;;;;;;;-143.84;96.89;44215.16;5090358;28;20485;-77
2023/01/11 09:47:15;;;;;;;45.47;14.10;;;;;;;-143.84;96.90;44218.94;5091753;28;20447;-77
2023/01/11 09:49:48;;;;;;;43.20;14.63;;;;;;;-143.84;97.38;44226.56;5091356;28;21283;-76
2023/01/11 09:52:27;;;;;;;38.73;12.80;;;;;;;-143.84;97.24;44232.28;5094122;28;21011;-79
2023/01/11 09:54:55;;;;;;;47.27;11.83;;;;;;;-143.84;97.23;44224.66;5094503;28;20440;-79
2023/01/11 09:57:41;;;;;;;48.23;11.63;;;;;;;-143.84;97.31;44220.84;5093869;28;20456;-79
2023/01/11 10:00:19;;;;;;;41.47;12.30;;;;;;;-143.84;97.38;44230.38;5092572;28;20476;-80
2023/01/11 10:03:00;;;;;;;22.97;11.20;;;;;;;-143.84;97.64;44232.28;5093947;28;20484;-80
2023/01/11 10:05:50;;;;;;;38.23;12.17;;;;;;;-143.84;97.95;44238.00;5094059;28;20443;-80
2023/01/11 10:08:38;;;;;;;31.07;11.43;;;;;;;-143.84;97.87;44245.59;5093199;28;20453;-80
2023/01/11 10:11:15;;;;;;;36.60;10.50;;;;;;;-143.84;97.93;44258.94;5090514;28;20492;-79
2023/01/11 10:13:54;;;;;;;39.27;9.80;;;;;;;-143.84;98.38;44260.84;5093631;28;20486;-79
2023/01/11 10:16:37;;;;;;;47.80;13.37;;;;;;;-143.84;98.15;44270.34;5092271;28;20880;-78
2023/01/11 10:19:13;;;;;;;49.63;9.80;;;;;;;-143.84;98.47;44277.97;5090231;28;20472;-78
2023/01/11 10:21:48;;;;;;;37.53;13.47;;;;;;;-143.84;98.70;44287.50;5092815;28;20558;-78
2023/01/11 10:24:25;;;;;;;42.23;11.90;;;;;;;-143.84;98.80;44291.28;5092857;28;20449;-78
2023/01/11 10:26:57;;;;;;;31.87;11.50;;;;;;;-143.84;98.89;44308.44;5092644;28;20462;-78
2023/01/11 10:29:48;;;;;;;52.40;12.63;;;;;;;-143.84;98.77;44314.13;5092501;28;20889;-77
2023/01/11 10:35:28;;;;;;;38.80;12.97;;;;;;;-143.84;99.59;44356.03;5097411;28;20484;-78
2023/01/11 10:38:21;;;;;;;55.77;13.20;;;;;;;-143.84;99.61;44367.44;5078659;28;20460;-78
2023/01/11 10:41:07;;;;;;;47.17;12.00;;;;;;;-143.84;99.49;44376.97;5073596;28;21258;-78
2023/01/11 10:43:40;;;;;;;41.43;12.37;;;;;;;-143.84;99.52;44380.78;5078597;28;20925;-75
2023/01/11 10:46:13;;;;;;;47.37;10.50;;;;;;;-143.84;99.57;44386.47;5092973;28;20511;-76
2023/01/11 10:48:43;;;;;;;38.33;11.47;;;;;;;-143.84;99.77;44401.72;5091985;28;20457;-76
2023/01/11 10:51:26;;;;;;;56.97;11.87;;;;;;;-143.84;99.92;44403.63;5091960;28;20474;-76
2023/01/11 10:54:01;;;;;;;32.33;10.40;;;;;;;-143.84;99.70;44401.72;5091865;28;20937;-76
2023/01/11 10:56:44;;;;;;;44.00;11.03;;;;;;;-143.84;99.66;44407.44;5091788;28;20445;-76
2023/01/11 10:59:26;;;;;;;39.37;11.17;;;;;;;-143.84;99.95;44397.91;5091444;28;20979;-76
2023/01/11 11:02:05;;;;;;;40.73;10.30;;;;;;;-143.84;99.90;44390.28;5090805;28;20480;-76
2023/01/11 11:04:54;;;;;;;31.83;10.00;;;;;;;-143.84;99.46;44375.06;5091631;28;20563;-75
2023/01/11 11:07:31;;;;;;;30.20;10.33;;;;;;;-143.84;99.54;44367.44;5091377;28;20450;-76
2023/01/11 11:10:08;;;;;;;40.50;12.53;;;;;;;-143.84;99.42;44367.44;5091228;28;20541;-76
2023/01/11 11:12:39;;;;;;;38.13;10.60;;;;;;;-143.84;99.24;44361.72;5090738;28;20478;-76
2023/01/11 11:15:14;;;;;;;35.60;10.73;;;;;;;-143.84;99.32;44359.84;5090042;28;20502;-76
2023/01/11 11:17:48;;;;;;;45.37;10.73;;;;;;;-143.84;99.15;44359.84;5089602;28;20449;-77
2023/01/11 11:20:19;;;;;;;54.10;9.80;;;;;;;-143.84;99.23;44354.13;5089854;28;20842;-76
2023/01/11 11:22:49;;;;;;;31.50;8.80;;;;;;;-143.84;99.27;44352.22;5090173;28;20501;-76
2023/01/11 11:25:21;;;;;;;37.80;10.10;;;;;;;-143.84;99.02;44352.22;5090415;28;20435;-76
2023/01/11 11:27:51;;;;;;;50.03;12.10;;;;;;;-143.84;99.41;44350.31;5089991;28;20458;-76
2023/01/11 11:30:28;;;;;;;47.60;11.70;;;;;;;-143.84;99.32;44359.84;5090946;28;20438;-76
2023/01/11 11:33:01;;;;;;;46.33;10.70;;;;;;;-143.84;99.13;44352.22;5090922;28;20452;-76
2023/01/11 11:35:34;;;;;;;63.47;14.33;;;;;;;-143.84;99.18;44350.31;5090837;28;20458;-76
2023/01/11 11:38:01;;;;;;;31.93;10.60;;;;;;;-143.84;99.19;44346.50;5089582;28;20826;-77
2023/01/11 11:40:32;;;;;;;55.83;12.63;;;;;;;-143.84;99.22;44344.59;5090918;28;20438;-76
2023/01/11 11:43:19;;;;;;;45.87;12.20;;;;;;;-143.84;98.97;44335.09;5090730;28;20528;-78
2023/01/11 11:45:55;;;;;;;45.87;13.20;;;;;;;-143.84;99.23;44336.97;5091296;28;21007;-77
2023/01/11 11:48:25;;;;;;;36.37;9.83;;;;;;;-143.84;99.20;44348.41;5091469;28;20461;-76